createdAt,value
2023-01-22T00:00:18.490Z,98303.50
2023-01-22T00:02:19.970Z,98312.88
2023-01-22T00:04:21.310Z,98305.13
2023-01-22T00:06:23.652Z,98305.06
2023-01-22T00:08:25.042Z,98298.03
2023-01-22T00:10:26.387Z,98309.16
2023-01-22T00:12:27.683Z,98307.28
2023-01-22T00:14:29.078Z,98303.63
2023-01-22T00:16:30.548Z,98310.34
2023-01-22T00:18:32.098Z,98301.06
2023-01-22T00:20:33.489Z,98320.44
2023-01-22T00:22:34.919Z,98311.97
2023-01-22T00:24:36.442Z,98310.53
2023-01-22T00:26:37.814Z,98323.56
2023-01-22T00:28:39.234Z,98310.53
2023-01-22T00:30:40.554Z,98314.91
2023-01-22T00:32:41.882Z,98315.44
2023-01-22T00:34:45.311Z,98325.19
2023-01-22T00:36:46.603Z,98333.06
2023-01-22T00:38:47.942Z,98337.25
2023-01-22T00:40:49.242Z,98331.78
2023-01-22T00:42:50.534Z,98335.81
2023-01-22T00:44:51.936Z,98333.91
2023-01-22T00:46:53.246Z,98329.16
2023-01-22T00:48:54.554Z,98335.63
2023-01-22T00:50:55.929Z,98330.31
2023-01-22T00:52:57.800Z,98330.91
2023-01-22T00:54:59.083Z,98334.13
2023-01-22T00:57:00.384Z,98329.72
2023-01-22T00:59:02.219Z,98332.16
2023-01-22T01:01:03.614Z,98332.91
2023-01-22T01:03:23.337Z,98341.31
2023-01-22T01:05:24.662Z,98338.72
2023-01-22T01:07:25.986Z,98336.03
2023-01-22T01:09:27.374Z,98323.25
2023-01-22T01:11:29.731Z,98323.16
2023-01-22T01:13:31.067Z,98326.59
2023-01-22T01:15:32.498Z,98319.75
2023-01-22T01:17:33.798Z,98321.44
2023-01-22T01:19:35.090Z,98324.84
2023-01-22T01:21:36.399Z,98331.69
2023-01-22T01:23:37.736Z,98330.03
2023-01-22T01:25:39.031Z,98342.06
2023-01-22T01:27:40.320Z,98343.84
2023-01-22T01:29:41.614Z,98337.13
2023-01-22T01:31:42.958Z,98344.16
2023-01-22T01:33:44.489Z,98338.28
2023-01-22T01:35:45.806Z,98348.56
2023-01-22T01:37:47.102Z,98351.22
2023-01-22T01:39:52.441Z,98343.59
2023-01-22T01:41:53.752Z,98348.81
2023-01-22T01:43:55.063Z,98341.19
2023-01-22T01:45:56.441Z,98343.84
2023-01-22T01:47:57.809Z,98181.25
2023-01-22T01:49:59.138Z,98338.13
2023-01-22T01:52:00.495Z,98345.81
2023-01-22T01:54:01.847Z,98351.81
2023-01-22T01:56:03.199Z,98346.75
2023-01-22T01:58:04.498Z,98351.06
2023-01-22T02:00:10.468Z,98352.78
2023-01-22T02:02:11.842Z,98343.47
2023-01-22T02:04:13.174Z,98346.94
2023-01-22T02:06:14.491Z,98345.28
2023-01-22T02:08:15.781Z,98354.63
2023-01-22T02:10:17.329Z,98354.69
2023-01-22T02:12:18.797Z,98348.72
2023-01-22T02:14:20.121Z,98361.53
2023-01-22T02:16:21.472Z,98360.69
2023-01-22T02:18:22.818Z,98352.16
2023-01-22T02:20:24.150Z,98359.81
2023-01-22T02:22:25.582Z,98370.00
2023-01-22T02:24:26.895Z,98369.97
2023-01-22T02:26:28.187Z,98373.22
2023-01-22T02:28:29.541Z,98376.50
2023-01-22T02:30:30.905Z,98370.47
2023-01-22T02:32:32.212Z,98371.19
2023-01-22T02:34:33.530Z,98368.59
2023-01-22T02:36:34.853Z,98376.06
2023-01-22T02:38:36.195Z,98375.97
2023-01-22T02:40:49.204Z,98378.38
2023-01-22T02:42:50.745Z,98376.63
2023-01-22T02:44:53.066Z,98374.06
2023-01-22T02:46:54.434Z,98375.72
2023-01-22T02:48:55.725Z,98383.38
2023-01-22T02:50:57.123Z,98387.66
2023-01-22T02:52:58.466Z,98386.03
2023-01-22T02:54:59.761Z,98376.66
2023-01-22T02:57:01.159Z,98379.31
2023-01-22T02:59:02.556Z,98375.94
2023-01-22T03:01:03.904Z,98369.19
2023-01-22T03:03:07.815Z,98376.00
2023-01-22T03:05:09.186Z,98377.84
2023-01-22T03:07:10.537Z,98375.41
2023-01-22T03:09:11.839Z,98381.38
2023-01-22T03:11:13.157Z,98370.28
2023-01-22T03:13:33.136Z,98378.84
2023-01-22T03:15:53.072Z,98382.34
2023-01-22T03:18:13.065Z,98379.00
2023-01-22T03:20:32.983Z,98385.88
2023-01-22T03:22:34.377Z,98377.41
2023-01-22T03:24:35.677Z,98379.94
2023-01-22T03:26:37.046Z,98387.66
2023-01-22T03:28:38.374Z,98386.00
2023-01-22T03:30:39.664Z,98385.19
2023-01-22T03:32:40.999Z,98391.19
2023-01-22T03:34:42.287Z,98394.50
2023-01-22T03:36:43.610Z,98394.50
2023-01-22T03:38:45.500Z,98397.03
2023-01-22T03:40:46.834Z,98397.88
2023-01-22T03:42:48.173Z,98402.16
2023-01-22T03:44:49.466Z,98399.56
2023-01-22T03:46:50.819Z,98397.78
2023-01-22T03:48:52.236Z,98405.41
2023-01-22T03:50:53.669Z,98404.47
2023-01-22T03:52:57.692Z,98411.16
2023-01-22T03:54:58.991Z,98409.41
2023-01-22T03:57:00.345Z,98415.28
2023-01-22T03:59:02.193Z,98421.06
2023-01-22T04:01:03.527Z,98419.25
2023-01-22T04:03:04.864Z,98413.25
2023-01-22T04:05:06.434Z,98415.81
2023-01-22T04:07:07.729Z,98416.66
2023-01-22T04:09:09.062Z,98426.94
2023-01-22T04:11:10.398Z,98426.09
2023-01-22T04:13:11.734Z,98416.72
2023-01-22T04:15:13.047Z,98416.66
2023-01-22T04:17:14.337Z,98421.81
2023-01-22T04:19:15.711Z,98427.00
2023-01-22T04:21:17.006Z,98424.53
2023-01-22T04:23:18.450Z,98423.72
2023-01-22T04:25:19.835Z,98420.41
2023-01-22T04:27:21.130Z,98418.78
2023-01-22T04:29:22.442Z,98421.41
2023-01-22T04:31:23.956Z,98427.41
2023-01-22T04:33:25.356Z,98429.16
2023-01-22T04:35:26.654Z,98428.28
2023-01-22T04:37:28.003Z,98427.44
2023-01-22T04:39:29.363Z,98430.03
2023-01-22T04:41:30.779Z,98435.19
2023-01-22T04:43:32.120Z,98434.31
2023-01-22T04:45:33.415Z,98430.94
2023-01-22T04:47:34.861Z,98428.44
2023-01-22T04:49:36.158Z,98421.66
2023-01-22T04:51:37.469Z,98427.66
2023-01-22T04:53:38.813Z,98424.25
2023-01-22T04:55:41.993Z,98424.22
2023-01-22T04:57:43.339Z,98435.31
2023-01-22T04:59:44.693Z,98435.34
2023-01-22T05:01:46.051Z,98437.88
2023-01-22T05:03:47.386Z,98434.44
2023-01-22T05:05:48.721Z,98436.91
2023-01-22T05:07:50.048Z,98444.56
2023-01-22T05:09:51.412Z,98442.72
2023-01-22T05:11:52.761Z,98441.84
2023-01-22T05:13:54.440Z,98448.50
2023-01-22T05:15:56.269Z,98448.47
2023-01-22T05:17:57.633Z,98445.88
2023-01-22T05:19:58.963Z,98447.47
2023-01-22T05:22:00.322Z,98450.78
2023-01-22T05:24:02.206Z,98452.44
2023-01-22T05:26:03.531Z,98457.47
2023-01-22T05:28:04.850Z,98455.00
2023-01-22T05:30:06.329Z,98449.03
2023-01-22T05:32:07.624Z,98452.44
2023-01-22T05:34:08.926Z,98455.00
2023-01-22T05:36:10.278Z,98455.91
2023-01-22T05:38:11.578Z,98461.06
2023-01-22T05:40:12.882Z,98462.81
2023-01-22T05:42:14.919Z,98468.00
2023-01-22T05:44:16.214Z,98467.19
2023-01-22T05:46:17.628Z,98468.94
2023-01-22T05:48:18.978Z,98472.41
2023-01-22T05:50:20.477Z,98480.09
2023-01-22T05:52:21.951Z,98478.44
2023-01-22T05:54:23.257Z,98477.69
2023-01-22T05:56:24.574Z,98482.78
2023-01-22T05:58:26.041Z,98488.00
2023-01-22T06:00:27.330Z,98487.16
2023-01-22T06:02:28.702Z,98487.94
2023-01-22T06:04:30.099Z,98493.06
2023-01-22T06:06:31.435Z,98492.16
2023-01-22T06:08:34.300Z,98495.59
2023-01-22T06:10:35.693Z,98486.28
2023-01-22T06:12:37.034Z,98495.63
2023-01-22T06:14:38.368Z,98494.81
2023-01-22T06:16:39.682Z,98494.81
2023-01-22T06:18:41.038Z,98499.91
2023-01-22T06:20:42.376Z,98504.16
2023-01-22T06:22:43.689Z,98499.91
2023-01-22T06:24:45.018Z,98505.88
2023-01-22T06:26:46.317Z,98493.06
2023-01-22T06:28:47.610Z,98496.44
2023-01-22T06:30:49.043Z,98503.16
2023-01-22T06:32:50.452Z,98504.00
2023-01-22T06:34:51.782Z,98509.06
2023-01-22T06:36:53.082Z,98508.09
2023-01-22T06:38:54.390Z,98513.16
2023-01-22T06:40:55.782Z,98507.91
2023-01-22T06:42:57.814Z,98507.88
2023-01-22T06:44:59.098Z,98511.22
2023-01-22T06:47:00.431Z,98516.31
2023-01-22T06:49:02.658Z,98512.09
2023-01-22T06:51:04.013Z,98519.00
2023-01-22T06:53:05.343Z,98523.34
2023-01-22T06:55:06.640Z,98531.03
2023-01-22T06:57:07.932Z,98529.44
2023-01-22T06:59:09.266Z,98527.88
2023-01-22T07:01:10.565Z,98539.03
2023-01-22T07:03:11.903Z,98536.59
2023-01-22T07:05:13.199Z,98545.16
2023-01-22T07:07:17.330Z,98540.09
2023-01-22T07:09:18.678Z,98535.91
2023-01-22T07:11:19.993Z,98547.00
2023-01-22T07:13:21.273Z,98550.38
2023-01-22T07:15:22.609Z,98555.53
2023-01-22T07:17:23.940Z,98560.63
2023-01-22T07:19:25.293Z,98557.25
2023-01-22T07:21:27.235Z,98563.25
2023-01-22T07:23:28.570Z,98567.50
2023-01-22T07:25:29.874Z,98567.50
2023-01-22T07:27:32.548Z,98566.69
2023-01-22T07:29:33.919Z,98569.25
2023-01-22T07:31:35.305Z,98575.09
2023-01-22T07:33:36.659Z,98570.81
2023-01-22T07:35:40.959Z,98580.16
2023-01-22T07:37:42.291Z,98580.16
2023-01-22T07:39:43.641Z,98584.38
2023-01-22T07:41:44.997Z,98592.84
2023-01-22T07:43:46.408Z,98594.47
2023-01-22T07:45:47.729Z,98585.06
2023-01-22T07:47:49.129Z,98602.06
2023-01-22T07:49:50.478Z,98596.03
2023-01-22T07:51:51.869Z,98608.72
2023-01-22T07:53:53.239Z,98611.16
2023-01-22T07:55:54.570Z,98605.94
2023-01-22T07:57:55.910Z,98608.44
2023-01-22T07:59:57.210Z,98612.66
2023-01-22T08:01:58.570Z,98610.13
2023-01-22T08:04:02.968Z,98616.03
2023-01-22T08:06:04.269Z,98614.34
2023-01-22T08:08:05.610Z,98605.84
2023-01-22T08:10:06.956Z,98616.03
2023-01-22T08:12:08.246Z,98616.03
2023-01-22T08:14:09.542Z,98608.44
2023-01-22T08:16:10.936Z,98604.22
2023-01-22T08:18:12.347Z,98601.63
2023-01-22T08:20:13.645Z,98599.88
2023-01-22T08:22:14.986Z,98603.34
2023-01-22T08:24:16.288Z,98594.94
2023-01-22T08:26:17.604Z,98601.78
2023-01-22T08:28:18.936Z,98606.09
2023-01-22T08:30:20.679Z,98605.31
2023-01-22T08:32:22.366Z,98609.59
2023-01-22T08:34:23.723Z,98605.41
2023-01-22T08:36:25.123Z,98606.31
2023-01-22T08:38:26.501Z,98613.13
2023-01-22T08:40:27.825Z,98614.00
2023-01-22T08:42:29.139Z,98617.69
2023-01-22T08:44:30.463Z,98625.34
2023-01-22T08:46:31.800Z,98627.00
2023-01-22T08:48:33.092Z,98621.47
2023-01-22T08:50:34.427Z,98621.94
2023-01-22T08:52:41.591Z,98625.97
2023-01-22T08:54:42.912Z,98622.22
2023-01-22T08:56:44.251Z,98617.66
2023-01-22T08:58:45.545Z,98623.34
2023-01-22T09:00:46.862Z,98623.09
2023-01-22T09:02:53.979Z,98629.69
2023-01-22T09:04:55.294Z,98636.34
2023-01-22T09:06:56.671Z,98634.53
2023-01-22T09:08:58.981Z,98634.47
2023-01-22T09:11:00.477Z,98645.47
2023-01-22T09:13:01.775Z,98645.41
2023-01-22T09:15:03.149Z,98641.09
2023-01-22T09:17:04.443Z,98640.19
2023-01-22T09:19:08.766Z,98643.50
2023-01-22T09:21:10.097Z,98640.06
2023-01-22T09:23:11.422Z,98635.75
2023-01-22T09:25:12.764Z,98643.41
2023-01-22T09:27:14.213Z,98639.09
2023-01-22T09:29:15.523Z,98641.63
2023-01-22T09:31:19.737Z,98645.91
2023-01-22T09:33:21.115Z,98643.31
2023-01-22T09:35:22.456Z,98641.59
2023-01-22T09:37:25.267Z,98645.81
2023-01-22T09:39:26.567Z,98648.38
2023-01-22T09:41:27.895Z,98653.53
2023-01-22T09:43:29.264Z,98645.84
2023-01-22T09:45:30.674Z,98656.13
2023-01-22T09:47:32.017Z,98661.34
2023-01-22T09:49:33.370Z,98661.44
2023-01-22T09:51:34.666Z,98667.53
2023-01-22T09:53:36.006Z,98663.34
2023-01-22T09:55:39.986Z,98662.56
2023-01-22T09:57:41.295Z,98661.78
2023-01-22T09:59:42.589Z,98666.09
2023-01-22T10:01:43.981Z,98659.38
2023-01-22T10:03:45.353Z,98657.69
2023-01-22T10:05:46.643Z,98662.00
2023-01-22T10:07:47.974Z,98658.66
2023-01-22T10:09:49.261Z,98654.44
2023-01-22T10:11:50.853Z,98656.22
2023-01-22T10:13:52.795Z,98662.19
2023-01-22T10:15:54.085Z,98658.84
2023-01-22T10:17:55.429Z,98648.66
2023-01-22T10:19:56.789Z,98651.25
2023-01-22T10:21:58.091Z,98650.44
2023-01-22T10:23:59.424Z,98648.72
2023-01-22T10:26:00.771Z,98648.72
2023-01-22T10:28:04.194Z,98653.00
2023-01-22T10:30:05.537Z,98649.56
2023-01-22T10:32:07.032Z,98652.94
2023-01-22T10:34:08.371Z,98669.06
2023-01-22T10:36:09.700Z,98671.53
2023-01-22T10:38:10.992Z,98668.00
2023-01-22T10:40:12.285Z,98673.03
2023-01-22T10:42:13.618Z,98675.50
2023-01-22T10:44:14.907Z,98677.28
2023-01-22T10:46:16.283Z,98676.53
2023-01-22T10:48:17.631Z,98680.88
2023-01-22T10:50:19.812Z,98680.13
2023-01-22T10:52:21.319Z,98682.75
2023-01-22T10:54:22.693Z,98676.78
2023-01-22T10:56:24.031Z,98684.44
2023-01-22T10:58:25.502Z,98672.47
2023-01-22T11:00:26.923Z,98671.56
2023-01-22T11:02:28.346Z,98674.06
2023-01-22T11:04:29.722Z,98663.78
2023-01-22T11:06:31.060Z,98663.69
2023-01-22T11:08:32.435Z,98655.16
2023-01-22T11:10:33.762Z,98668.69
2023-01-22T11:12:35.059Z,98666.91
2023-01-22T11:14:36.394Z,98655.84
2023-01-22T11:16:37.725Z,98656.72
2023-01-22T11:18:39.082Z,98649.88
2023-01-22T11:20:40.405Z,98656.69
2023-01-22T11:22:41.705Z,98655.81
2023-01-22T11:24:47.220Z,98650.72
2023-01-22T11:26:48.649Z,98650.66
2023-01-22T11:28:49.985Z,98649.00
2023-01-22T11:30:51.338Z,98649.91
2023-01-22T11:32:52.812Z,98656.75
2023-01-22T11:34:54.227Z,98658.50
2023-01-22T11:36:55.571Z,98656.81
2023-01-22T11:38:59.651Z,98653.44
2023-01-22T11:41:01.023Z,98661.09
2023-01-22T11:43:02.354Z,98663.72
2023-01-22T11:45:03.928Z,98658.66
2023-01-22T11:47:05.266Z,98661.22
2023-01-22T11:49:06.609Z,98663.84
2023-01-22T11:51:07.959Z,98666.44
2023-01-22T11:53:09.316Z,98673.22
2023-01-22T11:55:10.659Z,98669.84
2023-01-22T11:57:11.990Z,98672.41
2023-01-22T11:59:13.294Z,98668.19
2023-01-22T12:01:14.639Z,98669.91
2023-01-22T12:03:16.000Z,98668.22
2023-01-22T12:05:17.341Z,98666.53
2023-01-22T12:07:18.664Z,98666.66
2023-01-22T12:09:22.650Z,98669.19
2023-01-22T12:11:23.957Z,98662.38
2023-01-22T12:13:26.770Z,98669.16
2023-01-22T12:15:28.146Z,98553.47
2023-01-22T12:17:29.516Z,98670.16
2023-01-22T12:19:30.877Z,98664.09
2023-01-22T12:21:32.214Z,98669.88
2023-01-22T12:23:33.889Z,98657.03
2023-01-22T12:25:35.236Z,98659.50
2023-01-22T12:27:36.581Z,98645.81
2023-01-22T12:29:40.672Z,98655.06
2023-01-22T12:31:42.044Z,98655.91
2023-01-22T12:33:47.312Z,98660.09
2023-01-22T12:35:48.615Z,98653.25
2023-01-22T12:37:49.951Z,98660.88
2023-01-22T12:39:51.567Z,98647.22
2023-01-22T12:41:55.890Z,98655.75
2023-01-22T12:43:57.284Z,98654.09
2023-01-22T12:45:59.061Z,98647.25
2023-01-22T12:48:00.402Z,98649.00
2023-01-22T12:50:04.979Z,98650.72
2023-01-22T12:52:06.380Z,98657.56
2023-01-22T12:54:07.816Z,98655.91
2023-01-22T12:56:12.123Z,98668.72
2023-01-22T12:58:13.983Z,98662.84
2023-01-22T13:00:19.304Z,98659.44
2023-01-22T13:02:20.914Z,98662.94
2023-01-22T13:04:22.377Z,98665.47
2023-01-22T13:06:25.990Z,98674.06
2023-01-22T13:08:27.354Z,98668.97
2023-01-22T13:10:31.555Z,98679.22
2023-01-22T13:12:32.851Z,98678.41
2023-01-22T13:14:34.367Z,98679.28
2023-01-22T13:16:41.414Z,98677.69
2023-01-22T13:18:43.267Z,98677.50
2023-01-22T13:20:44.557Z,98677.88
2023-01-22T13:22:45.922Z,98673.78
2023-01-22T13:24:49.950Z,98678.53
2023-01-22T13:26:54.137Z,98676.41
2023-01-22T13:28:55.467Z,98685.94
2023-01-22T13:30:57.082Z,98677.16
2023-01-22T13:32:58.464Z,98673.94
2023-01-22T13:34:59.768Z,98680.75
2023-01-22T13:37:01.161Z,98680.69
2023-01-22T13:39:02.553Z,98680.56
2023-01-22T13:41:03.848Z,98675.41
2023-01-22T13:43:05.180Z,98693.19
2023-01-22T13:45:06.524Z,98689.97
2023-01-22T13:47:07.889Z,98546.50
2023-01-22T13:49:09.229Z,98691.53
2023-01-22T13:51:11.839Z,98698.56
2023-01-22T13:53:13.282Z,98691.84
2023-01-22T13:55:16.511Z,98696.97
2023-01-22T13:57:17.863Z,98701.28
2023-01-22T13:59:19.218Z,98702.13
2023-01-22T14:01:20.559Z,98702.13
2023-01-22T14:03:21.891Z,98409.81
2023-01-22T14:05:23.216Z,98704.72
2023-01-22T14:07:24.798Z,98709.84
2023-01-22T14:09:26.541Z,98713.28
2023-01-22T14:11:27.879Z,98706.50
2023-01-22T14:13:29.175Z,98712.50
2023-01-22T14:15:30.470Z,98710.78
2023-01-22T14:17:33.845Z,98713.38
2023-01-22T14:19:35.176Z,98716.78
2023-01-22T14:21:37.502Z,98721.88
2023-01-22T14:23:38.811Z,98714.22
2023-01-22T14:25:40.145Z,98714.25
2023-01-22T14:27:41.550Z,98710.00
2023-01-22T14:29:42.859Z,98715.16
2023-01-22T14:31:44.246Z,98721.16
2023-01-22T14:33:45.614Z,98721.16
2023-01-22T14:35:46.946Z,98716.88
2023-01-22T14:37:48.279Z,98722.84
2023-01-22T14:39:49.670Z,98729.66
2023-01-22T14:41:51.407Z,98728.84
2023-01-22T14:43:56.842Z,98729.75
2023-01-22T14:45:58.225Z,98716.19
2023-01-22T14:48:00.695Z,98717.91
2023-01-22T14:50:02.021Z,98722.22
2023-01-22T14:52:03.320Z,98712.94
2023-01-22T14:54:04.666Z,98720.66
2023-01-22T14:56:06.037Z,98714.72
2023-01-22T14:58:07.595Z,98711.28
2023-01-22T15:00:08.895Z,98714.47
2023-01-22T15:02:10.286Z,98715.31
2023-01-22T15:04:11.647Z,98724.75
2023-01-22T15:06:12.983Z,98723.06
2023-01-22T15:08:14.314Z,98728.97
2023-01-22T15:10:15.903Z,98726.41
2023-01-22T15:12:17.307Z,98723.88
2023-01-22T15:14:18.634Z,98719.59
2023-01-22T15:16:19.994Z,98720.41
2023-01-22T15:18:21.337Z,98715.28
2023-01-22T15:20:22.702Z,98723.78
2023-01-22T15:22:24.096Z,98729.78
2023-01-22T15:24:28.193Z,98734.00
2023-01-22T15:26:31.904Z,98737.41
2023-01-22T15:28:33.204Z,98748.44
2023-01-22T15:30:34.554Z,98744.22
2023-01-22T15:32:35.932Z,98737.41
2023-01-22T15:34:37.254Z,98741.66
2023-01-22T15:36:41.746Z,98759.53
2023-01-22T15:38:43.033Z,98758.72
2023-01-22T15:40:47.396Z,98762.06
2023-01-22T15:42:49.140Z,98759.47
2023-01-22T15:44:50.474Z,98760.53
2023-01-22T15:46:51.772Z,98768.22
2023-01-22T15:48:54.001Z,98761.97
2023-01-22T15:50:55.348Z,98763.53
2023-01-22T15:53:00.230Z,98763.28
2023-01-22T15:55:04.270Z,98765.72
2023-01-22T15:57:08.315Z,98758.88
2023-01-22T15:59:09.666Z,98633.75
2023-01-22T16:01:11.982Z,98762.50
2023-01-22T16:03:13.504Z,98767.97
2023-01-22T16:05:14.948Z,98762.09
2023-01-22T16:07:16.379Z,98768.09
2023-01-22T16:09:17.675Z,98769.78
2023-01-22T16:11:19.249Z,98776.31
2023-01-22T16:13:20.592Z,98778.22
2023-01-22T16:15:21.890Z,98777.44
2023-01-22T16:17:23.222Z,98782.63
2023-01-22T16:19:24.560Z,98782.59
2023-01-22T16:21:25.950Z,98781.78
2023-01-22T16:23:27.251Z,98777.16
2023-01-22T16:25:28.561Z,98784.97
2023-01-22T16:27:29.937Z,98786.19
2023-01-22T16:29:31.278Z,98781.84
2023-01-22T16:31:32.676Z,98793.00
2023-01-22T16:33:34.138Z,98792.25
2023-01-22T16:35:35.447Z,98792.25
2023-01-22T16:37:37.009Z,98796.56
2023-01-22T16:39:38.359Z,98790.97
2023-01-22T16:41:39.696Z,98794.13
2023-01-22T16:43:40.992Z,98802.16
2023-01-22T16:45:42.298Z,98792.84
2023-01-22T16:47:43.686Z,98802.84
2023-01-22T16:49:44.987Z,98798.03
2023-01-22T16:51:46.445Z,98802.81
2023-01-22T16:53:47.752Z,98798.31
2023-01-22T16:55:49.097Z,98668.09
2023-01-22T16:57:50.655Z,98814.25
2023-01-22T16:59:52.033Z,98815.88
2023-01-22T17:01:53.343Z,98816.47
2023-01-22T17:03:54.650Z,98812.34
2023-01-22T17:05:56.015Z,98813.41
2023-01-22T17:07:57.340Z,98817.66
2023-01-22T17:09:58.775Z,98826.38
2023-01-22T17:12:00.128Z,98829.84
2023-01-22T17:14:01.460Z,98821.44
2023-01-22T17:16:02.866Z,98823.03
2023-01-22T17:18:09.988Z,98828.97
2023-01-22T17:20:11.283Z,98832.53
2023-01-22T17:22:13.351Z,98833.38
2023-01-22T17:24:14.702Z,98841.03
2023-01-22T17:26:16.039Z,98835.81
2023-01-22T17:28:22.097Z,98841.84
2023-01-22T17:30:23.604Z,98844.44
2023-01-22T17:32:26.457Z,98847.84
2023-01-22T17:34:27.775Z,98851.25
2023-01-22T17:36:29.104Z,98844.38
2023-01-22T17:38:32.722Z,98857.16
2023-01-22T17:40:35.081Z,98850.22
2023-01-22T17:42:36.450Z,98854.44
2023-01-22T17:44:38.698Z,98855.22
2023-01-22T17:46:40.937Z,98857.00
2023-01-22T17:48:43.267Z,98856.78
2023-01-22T17:50:44.615Z,98860.31
2023-01-22T17:52:45.917Z,98862.66
2023-01-22T17:54:50.222Z,98865.16
2023-01-22T17:56:55.976Z,98870.06
2023-01-22T17:59:00.035Z,98870.84
2023-01-22T18:01:05.282Z,98876.75
2023-01-22T18:03:06.628Z,98876.63
2023-01-22T18:05:09.485Z,98878.38
2023-01-22T18:07:12.691Z,98883.38
2023-01-22T18:09:16.759Z,98888.50
2023-01-22T18:11:18.097Z,98884.31
2023-01-22T18:13:22.301Z,98891.88
2023-01-22T18:15:23.591Z,98883.28
2023-01-22T18:17:27.832Z,98890.94
2023-01-22T18:19:29.206Z,98893.50
2023-01-22T18:21:30.634Z,98899.72
2023-01-22T18:23:31.929Z,98899.31
2023-01-22T18:25:33.222Z,98901.63
2023-01-22T18:27:34.522Z,98900.50
2023-01-22T18:29:35.839Z,98903.03
2023-01-22T18:31:38.050Z,98902.81
2023-01-22T18:33:39.480Z,98901.19
2023-01-22T18:35:40.780Z,98903.00
2023-01-22T18:37:51.378Z,98903.84
2023-01-22T18:39:59.180Z,98902.22
2023-01-22T18:42:00.570Z,98902.25
2023-01-22T18:44:11.331Z,98909.09
2023-01-22T18:46:12.639Z,98908.19
2023-01-22T18:48:13.954Z,98909.03
2023-01-22T18:50:19.774Z,98915.91
2023-01-22T18:52:21.119Z,98921.72
2023-01-22T18:54:22.477Z,98911.53
2023-01-22T18:56:25.538Z,98920.94
2023-01-22T18:58:45.992Z,98917.50
2023-01-22T19:00:47.304Z,98928.59
2023-01-22T19:02:48.619Z,98927.78
2023-01-22T19:04:49.925Z,98929.53
2023-01-22T19:06:54.633Z,98924.47
2023-01-22T19:08:56.104Z,98930.41
2023-01-22T19:11:00.290Z,98932.19
2023-01-22T19:13:01.615Z,98932.97
2023-01-22T19:15:05.963Z,98941.13
2023-01-22T19:17:10.395Z,98937.03
2023-01-22T19:19:13.361Z,98937.91
2023-01-22T19:21:14.707Z,98948.72
2023-01-22T19:23:16.017Z,98944.31
2023-01-22T19:25:17.538Z,98937.28
2023-01-22T19:27:21.358Z,98945.81
2023-01-22T19:29:25.731Z,98940.53
2023-01-22T19:31:27.154Z,98951.56
2023-01-22T19:33:28.962Z,98951.50
2023-01-22T19:35:33.079Z,98956.44
2023-01-22T19:37:34.453Z,98955.72
2023-01-22T19:39:36.232Z,98951.22
2023-01-22T19:41:40.824Z,98958.72
2023-01-22T19:43:42.539Z,98961.47
2023-01-22T19:45:43.977Z,98964.03
2023-01-22T19:47:45.321Z,98965.75
2023-01-22T19:49:46.611Z,98958.16
2023-01-22T19:51:47.968Z,98971.09
2023-01-22T19:53:49.289Z,98975.47
2023-01-22T19:55:50.618Z,98972.91
2023-01-22T19:57:51.999Z,98969.41
2023-01-22T19:59:58.372Z,98969.56
2023-01-22T20:01:59.849Z,98960.88
2023-01-22T20:04:02.250Z,98970.13
2023-01-22T20:06:03.571Z,98975.34
2023-01-22T20:08:07.664Z,98975.31
2023-01-22T20:10:09.004Z,98974.47
2023-01-22T20:12:11.285Z,98978.91
2023-01-22T20:14:15.442Z,98975.50
2023-01-22T20:16:16.892Z,98980.78
2023-01-22T20:18:18.427Z,98983.47
2023-01-22T20:20:20.667Z,98979.16
2023-01-22T20:22:22.013Z,99002.88
2023-01-22T20:24:23.358Z,98987.72
2023-01-22T20:26:24.701Z,98988.50
2023-01-22T20:28:25.998Z,98986.81
2023-01-22T20:30:27.364Z,98980.84
2023-01-22T20:32:30.276Z,98992.78
2023-01-22T20:34:31.605Z,98986.75
2023-01-22T20:36:33.191Z,98989.38
2023-01-22T20:38:37.744Z,98991.94
2023-01-22T20:40:39.225Z,98994.53
2023-01-22T20:42:40.568Z,99002.53
2023-01-22T20:44:41.870Z,98996.84
2023-01-22T20:46:44.674Z,98998.63
2023-01-22T20:48:46.022Z,98997.78
2023-01-22T20:50:47.402Z,98998.66
2023-01-22T20:52:48.747Z,99003.75
2023-01-22T20:55:00.837Z,99004.56
2023-01-22T20:57:02.981Z,99003.66
2023-01-22T20:59:04.382Z,99006.84
2023-01-22T21:01:05.915Z,99005.63
2023-01-22T21:03:07.278Z,99008.75
2023-01-22T21:05:08.592Z,99006.91
2023-01-22T21:07:10.508Z,99005.88
2023-01-22T21:09:11.808Z,99008.44
2023-01-22T21:11:13.148Z,99008.34
2023-01-22T21:13:18.061Z,99013.50
2023-01-22T21:15:19.387Z,99015.28
2023-01-22T21:17:23.505Z,99021.28
2023-01-22T21:19:26.083Z,99028.09
2023-01-22T21:21:27.421Z,99030.66
2023-01-22T21:23:28.950Z,99039.16
2023-01-22T21:25:30.332Z,99041.75
2023-01-22T21:27:31.669Z,99041.97
2023-01-22T21:29:33.000Z,99049.50
2023-01-22T21:31:34.322Z,99053.91
2023-01-22T21:33:35.670Z,99061.50
2023-01-22T21:35:37.000Z,99050.25
2023-01-22T21:37:38.362Z,99054.22
2023-01-22T21:39:44.940Z,99054.81
2023-01-22T21:41:46.339Z,99059.69
2023-01-22T21:44:06.364Z,99069.03
2023-01-22T21:46:22.873Z,99064.66
2023-01-22T21:48:24.263Z,99063.44
2023-01-22T21:50:25.595Z,99059.78
2023-01-22T21:52:26.924Z,99060.59
2023-01-22T21:54:29.596Z,99069.03
2023-01-22T21:56:30.920Z,99064.50
2023-01-22T21:58:32.244Z,99071.97
2023-01-22T22:00:33.540Z,99080.38
2023-01-22T22:02:34.944Z,99075.22
2023-01-22T22:04:36.519Z,99073.47
2023-01-22T22:06:37.868Z,99070.94
2023-01-22T22:08:40.127Z,99066.63
2023-01-22T22:10:41.487Z,99074.28
2023-01-22T22:12:42.844Z,99073.44
2023-01-22T22:14:44.163Z,99070.00
2023-01-22T22:16:45.500Z,99078.56
2023-01-22T22:18:46.867Z,99075.16
2023-01-22T22:20:48.246Z,99075.16
2023-01-22T22:22:49.582Z,99071.78
2023-01-22T22:24:51.028Z,99079.47
2023-01-22T22:26:52.329Z,99076.09
2023-01-22T22:28:56.359Z,99076.97
2023-01-22T22:30:57.728Z,99080.44
2023-01-22T22:32:59.047Z,99083.88
2023-01-22T22:35:00.378Z,99089.84
2023-01-22T22:37:01.677Z,99087.31
2023-01-22T22:39:03.189Z,99092.44
2023-01-22T22:41:04.485Z,99096.75
2023-01-22T22:43:05.793Z,99103.59
2023-01-22T22:45:07.122Z,99099.38
2023-01-22T22:47:08.411Z,99101.97
2023-01-22T22:49:11.636Z,99098.56
2023-01-22T22:51:13.127Z,99096.03
2023-01-22T22:53:14.514Z,99098.59
2023-01-22T22:55:15.822Z,99100.34
2023-01-22T22:57:17.301Z,99097.78
2023-01-22T22:59:21.668Z,99103.75
2023-01-22T23:01:22.987Z,99110.56
2023-01-22T23:03:24.898Z,99120.78
2023-01-22T23:05:26.256Z,99113.13
2023-01-22T23:07:27.536Z,99112.28
2023-01-22T23:09:28.884Z,99111.44
2023-01-22T23:11:30.233Z,99113.16
2023-01-22T23:13:31.570Z,99118.28
2023-01-22T23:15:32.871Z,99120.81
2023-01-22T23:17:34.241Z,99125.91
2023-01-22T23:19:35.575Z,99119.91
2023-01-22T23:21:40.980Z,99120.75
2023-01-22T23:23:42.341Z,99125.00
2023-01-22T23:25:43.686Z,99127.53
2023-01-22T23:27:45.073Z,99121.53
2023-01-22T23:29:46.412Z,99113.00
2023-01-22T23:31:47.854Z,99124.91
2023-01-22T23:33:49.270Z,99125.72
2023-01-22T23:35:52.315Z,99126.53
2023-01-22T23:37:53.818Z,99129.94
2023-01-22T23:39:55.630Z,99128.25
2023-01-22T23:41:57.023Z,99130.75
2023-01-22T23:43:58.379Z,99133.31
2023-01-22T23:45:59.909Z,99138.44
2023-01-22T23:48:02.189Z,99147.78
2023-01-22T23:50:03.531Z,99144.41
2023-01-22T23:52:04.869Z,99149.53